createdAt,value
2019-03-13T00:01:37.683Z,3.91
2019-03-13T00:06:46.534Z,4.03
2019-03-13T00:11:55.424Z,4.34
2019-03-13T00:17:04.246Z,3.52
2019-03-13T00:22:13.194Z,3.99
2019-03-13T00:27:21.958Z,4.10
2019-03-13T00:32:30.901Z,5.21
2019-03-13T00:37:39.732Z,4.23
2019-03-13T00:42:48.710Z,4.28
2019-03-13T00:47:57.527Z,4.55
2019-03-13T00:53:06.423Z,4.20
2019-03-13T00:58:15.278Z,8.08
2019-03-13T01:03:24.174Z,5.86
2019-03-13T01:08:33.079Z,6.94
2019-03-13T01:13:42.036Z,7.25
2019-03-13T01:18:50.898Z,7.49
2019-03-13T01:23:59.796Z,6.48
2019-03-13T01:29:08.619Z,6.59
2019-03-13T01:34:17.543Z,5.38
2019-03-13T01:39:26.365Z,5.99
2019-03-13T01:44:35.295Z,5.31
2019-03-13T01:49:44.145Z,4.62
2019-03-13T01:54:53.083Z,5.39
2019-03-13T02:00:01.969Z,4.66
2019-03-13T02:05:10.879Z,5.16
2019-03-13T02:10:19.722Z,4.98
2019-03-13T02:15:28.666Z,5.10
2019-03-13T02:20:37.535Z,5.06
2019-03-13T02:25:46.470Z,4.08
2019-03-13T02:30:55.288Z,4.57
2019-03-13T02:36:04.204Z,4.54
2019-03-13T02:41:13.080Z,5.24
2019-03-13T02:46:21.992Z,4.11
2019-03-13T02:51:30.843Z,4.83
2019-03-13T02:56:39.774Z,4.84
2019-03-13T03:01:48.757Z,5.19
2019-03-13T03:06:57.713Z,5.08
2019-03-13T03:12:06.530Z,5.19
2019-03-13T03:17:15.507Z,4.29
2019-03-13T03:22:24.382Z,4.18
2019-03-13T03:27:33.394Z,4.88
2019-03-13T03:32:42.246Z,5.14
2019-03-13T03:37:51.169Z,4.55
2019-03-13T03:43:00.032Z,4.50
2019-03-13T03:48:08.943Z,4.75
2019-03-13T03:53:17.795Z,4.72
2019-03-13T03:58:29.515Z,4.57
2019-03-13T04:03:35.096Z,4.89
2019-03-13T04:08:44.089Z,5.31
2019-03-13T04:13:53.023Z,5.12
2019-03-13T04:19:01.904Z,4.87
2019-03-13T04:24:10.734Z,5.27
2019-03-13T04:29:19.664Z,5.06
2019-03-13T04:34:28.538Z,5.47
2019-03-13T04:39:37.447Z,5.60
2019-03-13T04:44:46.259Z,4.89
2019-03-13T04:49:55.190Z,5.86
2019-03-13T04:55:04.067Z,5.96
2019-03-13T05:00:13.033Z,5.02
2019-03-13T05:05:21.846Z,5.29
2019-03-13T05:10:30.727Z,4.96
2019-03-13T05:15:39.582Z,4.94
2019-03-13T05:20:48.507Z,4.91
2019-03-13T05:25:57.370Z,5.08
2019-03-13T05:31:06.282Z,4.80
2019-03-13T05:36:16.721Z,4.88
2019-03-13T05:41:23.596Z,4.47
2019-03-13T05:46:32.438Z,5.37
2019-03-13T05:51:41.366Z,5.02
2019-03-13T05:56:50.185Z,4.10
2019-03-13T06:01:59.142Z,4.77
2019-03-13T06:07:08.011Z,4.65
2019-03-13T06:12:16.963Z,4.17
2019-03-13T06:17:25.825Z,4.46
2019-03-13T06:22:34.766Z,4.00
2019-03-13T06:27:46.151Z,4.69
2019-03-13T06:32:52.242Z,4.55
2019-03-13T06:38:01.107Z,4.77
2019-03-13T06:43:12.795Z,4.53
2019-03-13T06:48:12.003Z,4.92
2019-03-13T06:53:20.893Z,4.69
2019-03-13T06:58:29.734Z,4.62
2019-03-13T07:03:38.671Z,4.65
2019-03-13T07:08:47.536Z,4.74
2019-03-13T07:13:58.953Z,4.60
2019-03-13T07:18:57.754Z,5.52
2019-03-13T07:24:06.683Z,4.69
2019-03-13T07:29:15.590Z,4.95
2019-03-13T07:34:24.571Z,6.55
2019-03-13T07:39:33.510Z,4.73
2019-03-13T07:44:42.433Z,4.41
2019-03-13T07:49:51.267Z,4.74
2019-03-13T07:55:00.415Z,4.67
2019-03-13T08:00:09.239Z,4.94
2019-03-13T08:05:18.167Z,6.25
2019-03-13T08:10:27.138Z,5.24
2019-03-13T08:15:36.058Z,5.66
2019-03-13T08:20:44.926Z,4.37
2019-03-13T08:25:53.833Z,5.01
2019-03-13T08:31:02.763Z,4.74
2019-03-13T08:36:12.159Z,4.40
2019-03-13T08:41:20.984Z,4.88
2019-03-13T08:46:29.915Z,4.80
2019-03-13T08:51:38.749Z,4.68
2019-03-13T08:56:47.652Z,4.30
2019-03-13T09:01:56.589Z,4.73
2019-03-13T09:07:05.510Z,4.97
2019-03-13T09:12:14.415Z,5.25
2019-03-13T09:17:23.604Z,5.01
2019-03-13T09:22:32.500Z,4.21
2019-03-13T09:27:41.447Z,4.70
2019-03-13T09:32:50.599Z,6.98
2019-03-13T09:37:58.054Z,4.73
2019-03-13T09:43:07.122Z,3.95
2019-03-13T09:48:16.224Z,4.10
2019-03-13T09:53:25.381Z,3.71
2019-03-13T09:58:34.328Z,3.97
2019-03-13T10:03:43.219Z,4.15
2019-03-13T10:08:52.146Z,5.15
2019-03-13T10:14:02.142Z,4.17
2019-03-13T10:19:10.711Z,3.52
2019-03-13T10:24:19.597Z,3.55
2019-03-13T10:25:34.247Z,4.48
2019-03-13T10:30:43.194Z,3.55
2019-03-13T10:35:52.022Z,3.80
2019-03-13T10:41:01.440Z,4.01
2019-03-13T10:46:10.315Z,3.30
2019-03-13T10:51:19.271Z,2.97
2019-03-13T10:56:28.141Z,3.23
2019-03-13T11:01:37.162Z,2.92
2019-03-13T11:06:54.893Z,3.49
2019-03-13T11:11:54.597Z,3.00
2019-03-13T11:17:03.599Z,3.59
2019-03-13T11:22:12.578Z,2.80
2019-03-13T11:27:21.431Z,3.11
2019-03-13T11:32:30.436Z,2.84
2019-03-13T11:37:39.367Z,3.24
2019-03-13T11:42:49.415Z,2.94
2019-03-13T11:47:48.216Z,3.42
2019-03-13T11:52:57.226Z,3.31
2019-03-13T11:58:06.171Z,3.65
2019-03-13T12:03:15.154Z,2.77
2019-03-13T12:08:24.045Z,3.78
2019-03-13T12:13:33.022Z,3.25
2019-03-13T12:18:41.890Z,3.36
2019-03-13T12:23:50.894Z,3.73
2019-03-13T12:29:00.740Z,3.53
2019-03-13T12:34:09.700Z,3.71
2019-03-13T12:39:18.723Z,3.65
2019-03-13T12:44:27.735Z,4.10
2019-03-13T12:49:36.675Z,3.94
2019-03-13T12:54:45.725Z,3.46
2019-03-13T12:59:54.593Z,3.61
2019-03-13T13:05:03.523Z,3.35
2019-03-13T13:10:12.396Z,4.13
2019-03-13T13:15:21.407Z,4.40
2019-03-13T13:20:30.554Z,4.06
2019-03-13T13:25:42.769Z,3.72
2019-03-13T13:30:41.532Z,3.92
2019-03-13T13:35:50.497Z,3.41
2019-03-13T13:40:59.404Z,3.74
2019-03-13T13:46:08.352Z,3.53
2019-03-13T13:51:17.267Z,4.33
2019-03-13T13:56:26.686Z,3.99
2019-03-13T14:01:35.603Z,4.05
2019-03-13T14:06:44.668Z,3.82
2019-03-13T14:11:53.617Z,3.55
2019-03-13T14:17:02.619Z,3.13
2019-03-13T14:22:11.527Z,2.31
2019-03-13T14:27:20.498Z,2.63
2019-03-13T14:32:29.431Z,2.57
2019-03-13T14:37:38.407Z,2.90
2019-03-13T14:42:47.251Z,2.51
2019-03-13T14:47:56.304Z,2.52
2019-03-13T14:53:05.206Z,3.50
2019-03-13T14:58:14.219Z,4.59
2019-03-13T15:03:23.124Z,4.01
2019-03-13T15:08:32.108Z,4.25
2019-03-13T15:13:41.026Z,3.90
2019-03-13T15:18:49.987Z,3.35
2019-03-13T15:23:58.847Z,4.08
2019-03-13T15:29:07.836Z,3.87
2019-03-13T15:34:16.825Z,3.58
2019-03-13T15:39:25.753Z,3.56
2019-03-13T15:44:34.630Z,3.59
2019-03-13T15:49:43.591Z,3.30
2019-03-13T15:54:52.515Z,3.33
2019-03-13T16:00:01.638Z,3.02
2019-03-13T16:05:10.547Z,2.87
2019-03-13T16:10:18.144Z,3.14
2019-03-13T16:15:27.196Z,3.89
2019-03-13T16:20:36.196Z,2.78
2019-03-13T16:25:45.192Z,3.25
2019-03-13T16:30:54.155Z,3.84
2019-03-13T16:36:05.556Z,2.53
2019-03-13T16:41:04.470Z,3.13
2019-03-13T16:46:13.447Z,3.21
2019-03-13T16:51:22.447Z,3.90
2019-03-13T16:56:31.566Z,4.25
2019-03-13T17:01:40.700Z,4.04
2019-03-13T17:06:49.632Z,3.95
2019-03-13T17:11:58.695Z,4.92
2019-03-13T17:17:07.587Z,5.20
2019-03-13T17:22:16.534Z,4.83
2019-03-13T17:27:25.535Z,4.45
2019-03-13T17:32:34.502Z,4.25
2019-03-13T17:37:43.494Z,4.61
2019-03-13T17:42:52.450Z,4.93
2019-03-13T17:48:03.628Z,15.99
2019-03-13T17:53:02.542Z,6.44
2019-03-13T17:58:14.571Z,14.02
2019-03-13T18:03:13.487Z,8.12
2019-03-13T18:08:22.360Z,17.20
2019-03-13T18:13:31.519Z,9.11
2019-03-13T18:18:40.395Z,7.36
2019-03-13T18:23:51.591Z,7.32
2019-03-13T18:28:50.471Z,8.36
2019-03-13T18:33:59.501Z,7.85
2019-03-13T18:39:08.462Z,8.18
2019-03-13T18:44:17.581Z,4.41
2019-03-13T18:49:26.582Z,3.35
2019-03-13T18:54:35.799Z,5.10
2019-03-13T18:59:43.284Z,2.55
2019-03-13T19:04:52.222Z,4.20
2019-03-13T19:10:01.217Z,4.70
2019-03-13T19:15:10.334Z,3.86
2019-03-13T19:20:19.323Z,3.46
2019-03-13T19:25:28.491Z,4.01
2019-03-13T19:30:38.003Z,4.17
2019-03-13T19:35:46.651Z,4.35
2019-03-13T19:40:55.799Z,5.10
2019-03-13T19:46:04.766Z,5.84
2019-03-13T19:51:13.672Z,4.39
2019-03-13T19:56:22.793Z,3.74
2019-03-13T20:01:31.639Z,8.73
2019-03-13T20:06:42.500Z,11.57
2019-03-13T20:11:49.027Z,16.74
2019-03-13T20:16:57.939Z,28.54
2019-03-13T20:22:06.842Z,33.78
2019-03-13T20:27:15.787Z,9.51
2019-03-13T20:32:24.787Z,10.78
2019-03-13T20:37:33.751Z,10.60
2019-03-13T20:42:42.713Z,7.17
2019-03-13T20:47:51.645Z,5.58
2019-03-13T20:53:00.491Z,4.32
2019-03-13T20:58:09.540Z,4.26
2019-03-13T21:03:18.503Z,4.89
2019-03-13T21:08:27.766Z,5.28
2019-03-13T21:13:36.776Z,4.31
2019-03-13T21:18:46.378Z,3.77
2019-03-13T21:23:55.421Z,3.79
2019-03-13T21:29:04.590Z,4.06
2019-03-13T21:34:13.470Z,3.52
2019-03-13T21:39:22.411Z,4.02
2019-03-13T21:44:31.272Z,3.55
2019-03-13T21:49:40.211Z,4.16
2019-03-13T21:54:51.981Z,3.85
2019-03-13T21:59:57.661Z,4.98
2019-03-13T22:05:06.666Z,4.00
2019-03-13T22:10:15.690Z,4.55
2019-03-13T22:15:24.626Z,4.45
2019-03-13T22:20:33.547Z,5.25
2019-03-13T22:25:42.407Z,4.25
2019-03-13T22:30:51.439Z,3.51
2019-03-13T22:36:00.383Z,3.62
2019-03-13T22:41:09.302Z,3.92
2019-03-13T22:46:18.183Z,3.42
2019-03-13T22:51:27.096Z,3.70
2019-03-13T22:56:36.031Z,3.52
2019-03-13T23:01:45.330Z,3.45
2019-03-13T23:06:54.423Z,3.27
2019-03-13T23:12:03.359Z,3.45
2019-03-13T23:17:12.274Z,2.92
2019-03-13T23:22:21.223Z,3.27
2019-03-13T23:27:30.083Z,3.65
2019-03-13T23:32:39.068Z,3.45
2019-03-13T23:37:47.941Z,3.48
2019-03-13T23:42:56.834Z,3.93
2019-03-13T23:48:05.680Z,4.13
2019-03-13T23:53:14.579Z,4.54
2019-03-13T23:58:23.418Z,10.73
